Time;durP1;ratioP1;P1;durP2;ratioP2;P2;SDS_P1;SDS_P2;PMS_P1;PMS_P2;Temp;Humidity;BMP_temperature;BMP_pressure;BME280_temperature;BME280_humidity;BME280_pressure;Samples;Min_cycle;Max_cycle;Signal;HPM_P1;HPM_P2
2022/06/13 00:01:19;;;;;;;0.75;0.70;;;;;;;;;;5044360;28;20337;-64
2022/06/13 00:03:47;;;;;;;3.10;1.10;;;;;;;;;;5044632;28;20295;-65
2022/06/13 00:06:14;;;;;;;1.35;1.05;;;;;;;;;;5042938;28;20214;-66
2022/06/13 00:08:41;;;;;;;2.35;0.77;;;;;;;;;;5044351;28;20208;-65
2022/06/13 00:11:11;;;;;;;2.50;0.80;;;;;;;;;;5045338;28;21022;-65
2022/06/13 00:13:41;;;;;;;2.25;0.98;;;;;;;;;;5045440;28;20203;-64
2022/06/13 00:16:09;;;;;;;1.70;0.90;;;;;;;;;;5044686;28;20274;-64
2022/06/13 00:18:36;;;;;;;4.22;1.02;;;;;;;;;;5045887;28;20207;-64
2022/06/13 00:21:03;;;;;;;1.90;1.00;;;;;;;;;;5045383;28;20620;-64
2022/06/13 00:23:30;;;;;;;4.32;1.02;;;;;;;;;;5039926;28;20858;-64
2022/06/13 00:25:57;;;;;;;0.90;0.90;;;;;;;;;;5046760;28;20257;-64
2022/06/13 00:28:24;;;;;;;1.85;1.00;;;;;;;;;;5049824;28;20242;-64
2022/06/13 00:30:53;;;;;;;4.50;1.17;;;;;;;;;;5049703;28;20211;-64
2022/06/13 00:33:20;;;;;;;1.00;0.90;;;;;;;;;;5048143;28;20204;-64
2022/06/13 00:35:47;;;;;;;1.27;1.00;;;;;;;;;;5049782;28;20662;-64
2022/06/13 00:38:14;;;;;;;2.50;1.00;;;;;;;;;;5049456;28;20220;-64
2022/06/13 00:40:41;;;;;;;1.45;1.02;;;;;;;;;;5049699;28;20203;-64
2022/06/13 00:43:08;;;;;;;1.05;0.95;;;;;;;;;;5049430;28;20215;-64
2022/06/13 00:45:36;;;;;;;3.58;1.00;;;;;;;;;;5049358;28;20278;-64
2022/06/13 00:48:05;;;;;;;2.50;1.02;;;;;;;;;;5049817;28;20203;-64
2022/06/13 00:50:33;;;;;;;2.60;1.10;;;;;;;;;;5048549;28;20269;-64
2022/06/13 00:53:04;;;;;;;1.10;1.02;;;;;;;;;;5048362;28;20230;-64
2022/06/13 00:55:33;;;;;;;1.70;1.02;;;;;;;;;;5046799;28;20296;-64
2022/06/13 00:58:00;;;;;;;1.20;0.98;;;;;;;;;;5048025;28;20258;-64
2022/06/13 01:00:28;;;;;;;2.03;1.30;;;;;;;;;;5043483;28;20255;-65
2022/06/13 01:02:56;;;;;;;2.35;1.02;;;;;;;;;;5047873;28;20215;-63
2022/06/13 01:05:25;;;;;;;2.38;0.80;;;;;;;;;;5048973;28;20207;-64
2022/06/13 01:07:53;;;;;;;2.63;1.33;;;;;;;;;;5049498;28;20273;-65
2022/06/13 01:13:06;;;;;;;1.25;1.05;;;;;;;;;;5049747;28;20198;-64
2022/06/13 01:15:41;;;;;;;4.25;1.35;;;;;;;;;;5048522;28;20674;-64
2022/06/13 01:18:16;;;;;;;1.42;1.10;;;;;;;;;;5049170;28;20253;-64
2022/06/13 01:20:52;;;;;;;1.83;1.20;;;;;;;;;;5048823;28;20218;-65
2022/06/13 01:23:36;;;;;;;2.80;1.58;;;;;;;;;;5048987;28;20260;-65
2022/06/13 01:26:20;;;;;;;1.98;1.45;;;;;;;;;;5048987;28;20653;-65
2022/06/13 01:29:04;;;;;;;3.72;1.20;;;;;;;;;;5048663;28;20208;-65
2022/06/13 01:31:37;;;;;;;1.60;1.05;;;;;;;;;;5047036;28;20207;-65
2022/06/13 01:34:06;;;;;;;1.77;1.23;;;;;;;;;;5048588;28;20726;-65
2022/06/13 01:36:37;;;;;;;2.30;1.27;;;;;;;;;;5048019;28;20697;-65
2022/06/13 01:39:13;;;;;;;2.92;1.05;;;;;;;;;;5048440;28;20203;-65
2022/06/13 01:41:45;;;;;;;2.92;1.00;;;;;;;;;;5048134;28;20211;-65
2022/06/13 01:44:15;;;;;;;1.45;0.90;;;;;;;;;;5046067;28;20199;-64
2022/06/13 01:46:45;;;;;;;5.00;1.08;;;;;;;;;;5047968;28;20208;-65
2022/06/13 01:49:20;;;;;;;1.88;1.08;;;;;;;;;;5048023;28;20195;-65
2022/06/13 01:51:50;;;;;;;0.85;0.85;;;;;;;;;;5046394;28;20209;-65
2022/06/13 01:54:21;;;;;;;1.48;1.08;;;;;;;;;;5048380;28;20280;-65
2022/06/13 01:56:52;;;;;;;1.02;0.98;;;;;;;;;;5045838;28;20823;-65
2022/06/13 01:59:21;;;;;;;1.27;1.08;;;;;;;;;;5047636;28;20200;-65
2022/06/13 02:01:52;;;;;;;2.90;1.63;;;;;;;;;;5048338;28;20204;-65
2022/06/13 02:04:21;;;;;;;3.60;1.20;;;;;;;;;;5046963;28;20462;-65
2022/06/13 02:06:51;;;;;;;1.17;1.15;;;;;;;;;;5046557;28;20201;-65
2022/06/13 02:09:21;;;;;;;1.23;1.13;;;;;;;;;;5047624;28;20215;-64
2022/06/13 02:11:49;;;;;;;1.65;1.02;;;;;;;;;;5045592;28;20208;-65
2022/06/13 02:14:17;;;;;;;1.95;1.20;;;;;;;;;;5044335;28;20211;-65
2022/06/13 02:16:48;;;;;;;1.75;1.15;;;;;;;;;;5046081;28;20242;-65
2022/06/13 02:19:20;;;;;;;2.45;1.08;;;;;;;;;;5045067;28;20218;-65
2022/06/13 02:21:50;;;;;;;2.40;1.17;;;;;;;;;;5044054;28;20219;-64
2022/06/13 02:24:18;;;;;;;1.33;1.23;;;;;;;;;;5040879;28;20212;-65
2022/06/13 02:26:47;;;;;;;4.05;1.35;;;;;;;;;;5045112;28;20677;-64
2022/06/13 02:29:17;;;;;;;1.15;0.98;;;;;;;;;;5045853;28;20790;-65
2022/06/13 02:31:46;;;;;;;3.38;1.33;;;;;;;;;;5046234;28;20294;-65
2022/06/13 02:34:16;;;;;;;1.65;1.02;;;;;;;;;;5047396;28;20332;-65
2022/06/13 02:36:46;;;;;;;3.28;1.13;;;;;;;;;;5047872;28;20806;-65
2022/06/13 02:39:15;;;;;;;0.70;0.70;;;;;;;;;;5047571;28;20277;-65
2022/06/13 02:41:43;;;;;;;2.28;1.25;;;;;;;;;;5046219;28;20253;-64
2022/06/13 02:44:14;;;;;;;0.90;0.90;;;;;;;;;;5045619;28;20674;-65
2022/06/13 02:46:43;;;;;;;1.00;1.00;;;;;;;;;;5047544;28;20199;-65
2022/06/13 02:49:13;;;;;;;1.42;1.17;;;;;;;;;;5046385;28;20223;-64
2022/06/13 02:51:44;;;;;;;3.17;1.27;;;;;;;;;;5045727;28;20204;-64
2022/06/13 02:54:15;;;;;;;2.38;1.02;;;;;;;;;;5045844;28;20223;-64
2022/06/13 02:59:43;;;;;;;1.50;1.40;;;;;;;;;;5044419;28;20340;-64
2022/06/13 03:02:12;;;;;;;2.35;1.20;;;;;;;;;;5046354;28;20207;-65
2022/06/13 03:04:42;;;;;;;2.25;1.30;;;;;;;;;;5045711;28;20564;-64
2022/06/13 03:07:13;;;;;;;1.42;1.10;;;;;;;;;;5045485;28;20253;-64
2022/06/13 03:09:44;;;;;;;2.78;1.58;;;;;;;;;;5045606;28;20207;-64
2022/06/13 03:12:14;;;;;;;1.33;1.27;;;;;;;;;;5044413;28;20203;-64
2022/06/13 03:14:44;;;;;;;4.03;1.33;;;;;;;;;;5046540;28;20254;-64
2022/06/13 03:17:16;;;;;;;3.17;1.20;;;;;;;;;;5044307;28;20231;-64
2022/06/13 03:19:46;;;;;;;1.38;1.27;;;;;;;;;;5045841;28;20210;-64
2022/06/13 03:22:18;;;;;;;0.90;0.90;;;;;;;;;;5046333;28;20224;-64
2022/06/13 03:24:52;;;;;;;2.47;0.90;;;;;;;;;;5044739;28;20242;-65
2022/06/13 03:27:22;;;;;;;2.00;1.00;;;;;;;;;;5046354;28;20196;-64
2022/06/13 03:29:53;;;;;;;1.10;1.00;;;;;;;;;;5046310;28;20196;-65
2022/06/13 03:32:23;;;;;;;0.73;0.73;;;;;;;;;;5046331;28;20626;-64
2022/06/13 03:34:51;;;;;;;1.35;1.17;;;;;;;;;;5045662;28;20212;-64
2022/06/13 03:37:20;;;;;;;1.77;1.00;;;;;;;;;;5046426;28;20227;-64
2022/06/13 03:39:51;;;;;;;1.95;0.88;;;;;;;;;;5045738;28;20257;-64
2022/06/13 03:42:20;;;;;;;2.20;0.98;;;;;;;;;;5045022;28;20208;-64
2022/06/13 03:44:51;;;;;;;0.88;0.88;;;;;;;;;;5045330;28;20208;-64
2022/06/13 03:47:20;;;;;;;3.53;1.08;;;;;;;;;;5045665;28;20208;-65
2022/06/13 03:49:51;;;;;;;0.90;0.90;;;;;;;;;;5045197;28;20204;-64
2022/06/13 03:52:19;;;;;;;1.48;0.95;;;;;;;;;;5045368;28;20610;-65
2022/06/13 03:54:48;;;;;;;2.50;1.15;;;;;;;;;;5044750;28;20222;-64
2022/06/13 03:57:19;;;;;;;2.25;0.80;;;;;;;;;;5049403;28;20231;-64
2022/06/13 03:59:48;;;;;;;1.08;1.08;;;;;;;;;;5049218;28;20204;-64
2022/06/13 04:02:17;;;;;;;1.13;0.80;;;;;;;;;;5049180;28;20328;-65
2022/06/13 04:04:47;;;;;;;0.80;0.80;;;;;;;;;;5048635;28;20238;-64
2022/06/13 04:07:14;;;;;;;1.20;1.10;;;;;;;;;;5049179;28;20301;-64
2022/06/13 04:09:45;;;;;;;0.80;0.80;;;;;;;;;;5049165;28;20291;-64
2022/06/13 04:12:22;;;;;;;0.90;0.90;;;;;;;;;;5049106;28;20680;-64
2022/06/13 04:14:59;;;;;;;1.65;0.85;;;;;;;;;;5049273;28;20950;-65
2022/06/13 04:17:30;;;;;;;1.23;0.85;;;;;;;;;;5048664;28;20285;-64
2022/06/13 04:20:00;;;;;;;0.98;0.90;;;;;;;;;;5048564;28;20741;-64
2022/06/13 04:22:33;;;;;;;0.95;0.77;;;;;;;;;;5049177;28;20629;-64
2022/06/13 04:25:04;;;;;;;2.83;0.70;;;;;;;;;;5046413;28;20834;-65
2022/06/13 04:27:36;;;;;;;1.65;0.95;;;;;;;;;;5049328;28;20207;-65
2022/06/13 04:30:09;;;;;;;1.05;0.75;;;;;;;;;;5049984;28;20269;-64
2022/06/13 04:32:39;;;;;;;1.17;1.00;;;;;;;;;;5050291;28;20254;-64
2022/06/13 04:35:07;;;;;;;2.67;1.08;;;;;;;;;;5050088;28;20584;-65
2022/06/13 04:37:34;;;;;;;1.65;0.75;;;;;;;;;;5049938;28;20682;-65
2022/06/13 04:40:05;;;;;;;1.08;0.98;;;;;;;;;;5049625;28;20572;-66
2022/06/13 04:42:35;;;;;;;2.22;1.23;;;;;;;;;;5049648;28;20612;-65
2022/06/13 04:45:09;;;;;;;3.88;1.17;;;;;;;;;;5049677;28;20211;-66
2022/06/13 04:47:37;;;;;;;1.38;0.90;;;;;;;;;;5046516;28;20227;-65
2022/06/13 04:50:06;;;;;;;1.90;1.15;;;;;;;;;;5049283;28;20199;-65
2022/06/13 04:52:34;;;;;;;0.80;0.80;;;;;;;;;;5049573;28;20621;-65
2022/06/13 04:55:04;;;;;;;3.60;1.05;;;;;;;;;;5048693;28;20245;-66
2022/06/13 04:57:31;;;;;;;3.08;1.08;;;;;;;;;;5048645;28;20235;-63
2022/06/13 04:59:58;;;;;;;0.90;0.90;;;;;;;;;;5049264;28;20210;-66
2022/06/13 05:02:35;;;;;;;1.88;1.00;;;;;;;;;;5048598;28;20239;-66
2022/06/13 05:05:02;;;;;;;0.90;0.90;;;;;;;;;;5048569;28;20207;-65
2022/06/13 05:07:29;;;;;;;2.22;1.00;;;;;;;;;;5049418;28;20635;-66
2022/06/13 05:09:59;;;;;;;4.63;1.20;;;;;;;;;;5049312;28;20204;-65
2022/06/13 05:12:28;;;;;;;1.15;0.80;;;;;;;;;;5043926;28;20278;-65
2022/06/13 05:14:56;;;;;;;1.15;0.93;;;;;;;;;;5049143;28;20204;-65
2022/06/13 05:17:31;;;;;;;1.13;0.90;;;;;;;;;;5048930;28;20227;-65
2022/06/13 05:20:03;;;;;;;1.15;0.88;;;;;;;;;;5049509;28;20245;-65
2022/06/13 05:22:39;;;;;;;0.80;0.80;;;;;;;;;;5048047;28;20258;-64
2022/06/13 05:25:21;;;;;;;1.08;0.93;;;;;;;;;;5049051;28;20238;-65
2022/06/13 05:27:48;;;;;;;1.30;1.23;;;;;;;;;;5032812;28;20199;-64
2022/06/13 05:30:16;;;;;;;1.15;0.85;;;;;;;;;;5048487;28;20277;-65
2022/06/13 05:32:45;;;;;;;2.47;0.75;;;;;;;;;;5049225;28;20211;-64
2022/06/13 05:35:13;;;;;;;2.35;0.80;;;;;;;;;;5045501;28;20208;-64
2022/06/13 05:37:40;;;;;;;2.47;0.90;;;;;;;;;;5039935;28;20286;-65
2022/06/13 05:40:08;;;;;;;3.28;1.00;;;;;;;;;;5043783;28;20204;-65
2022/06/13 05:42:35;;;;;;;0.77;0.70;;;;;;;;;;5048344;28;20745;-64
2022/06/13 05:45:02;;;;;;;1.50;1.17;;;;;;;;;;5049137;28;20204;-64
2022/06/13 05:47:29;;;;;;;2.38;0.85;;;;;;;;;;5047946;28;20993;-71
2022/06/13 05:49:57;;;;;;;5.03;2.50;;;;;;;;;;5047168;28;20265;-66
2022/06/13 05:52:24;;;;;;;1.65;0.90;;;;;;;;;;5030286;28;20212;-65
2022/06/13 05:54:51;;;;;;;1.50;1.00;;;;;;;;;;5046402;28;20199;-65
2022/06/13 05:57:18;;;;;;;1.60;1.00;;;;;;;;;;5048356;28;20237;-66
2022/06/13 05:59:45;;;;;;;2.25;0.95;;;;;;;;;;5048187;28;20216;-66
2022/06/13 06:02:12;;;;;;;1.20;1.10;;;;;;;;;;5048153;28;20230;-66
2022/06/13 06:04:39;;;;;;;1.13;1.00;;;;;;;;;;5048429;28;20242;-67
2022/06/13 06:07:09;;;;;;;1.45;0.70;;;;;;;;;;5047424;28;20214;-66
2022/06/13 06:09:36;;;;;;;0.93;0.93;;;;;;;;;;5048537;28;21857;-65
2022/06/13 06:12:03;;;;;;;0.75;0.75;;;;;;;;;;5048209;28;20203;-68
2022/06/13 06:14:30;;;;;;;1.30;0.75;;;;;;;;;;5047999;28;20364;-67
2022/06/13 06:16:57;;;;;;;3.17;1.10;;;;;;;;;;5047064;28;20266;-66
2022/06/13 06:19:26;;;;;;;1.23;0.82;;;;;;;;;;5044714;28;20686;-63
2022/06/13 06:21:53;;;;;;;1.92;0.80;;;;;;;;;;5040256;28;20204;-65
2022/06/13 06:24:21;;;;;;;1.92;1.30;;;;;;;;;;5044613;28;20204;-65
2022/06/13 06:26:48;;;;;;;2.70;1.15;;;;;;;;;;5047327;28;20210;-66
2022/06/13 06:29:15;;;;;;;2.45;0.88;;;;;;;;;;5047775;28;20999;-66
2022/06/13 06:31:42;;;;;;;1.70;0.77;;;;;;;;;;5047903;28;20262;-66
2022/06/13 06:34:09;;;;;;;1.42;0.80;;;;;;;;;;5031482;28;20663;-66
2022/06/13 06:36:36;;;;;;;0.82;0.82;;;;;;;;;;5048334;28;20693;-72
2022/06/13 06:39:03;;;;;;;1.13;1.02;;;;;;;;;;5048108;28;20239;-66
2022/06/13 06:41:32;;;;;;;2.58;1.10;;;;;;;;;;5048000;28;20204;-66
2022/06/13 06:43:59;;;;;;;2.63;0.80;;;;;;;;;;5048060;28;20588;-66
2022/06/13 06:46:26;;;;;;;2.45;0.80;;;;;;;;;;5047947;28;20273;-65
2022/06/13 06:48:53;;;;;;;1.58;1.10;;;;;;;;;;5047759;28;20250;-66
2022/06/13 06:51:21;;;;;;;2.80;0.82;;;;;;;;;;5038613;28;20270;-66
2022/06/13 07:02:04;;;;;;;1.10;0.82;;;;;;;;;;5047797;28;20198;-68
2022/06/13 07:04:31;;;;;;;1.58;0.90;;;;;;;;;;5043239;28;20662;-60
2022/06/13 07:06:58;;;;;;;0.70;0.70;;;;;;;;;;5035464;28;20266;-60
2022/06/13 07:09:25;;;;;;;1.65;0.75;;;;;;;;;;5047092;28;20286;-62
2022/06/13 07:11:56;;;;;;;1.13;0.93;;;;;;;;;;5046577;28;20265;-63
2022/06/13 07:14:25;;;;;;;0.60;0.60;;;;;;;;;;5046793;28;20298;-64
2022/06/13 07:16:52;;;;;;;1.27;0.70;;;;;;;;;;5045668;28;20212;-66
2022/06/13 07:19:19;;;;;;;0.70;0.70;;;;;;;;;;5046175;28;20227;-67
2022/06/13 07:21:46;;;;;;;1.45;0.70;;;;;;;;;;5046773;28;20207;-67
2022/06/13 07:24:14;;;;;;;1.30;0.80;;;;;;;;;;5046688;28;20207;-67
2022/06/13 07:26:41;;;;;;;2.42;1.05;;;;;;;;;;5046909;28;20267;-66
2022/06/13 07:29:09;;;;;;;1.10;0.77;;;;;;;;;;5048811;28;20200;-67
2022/06/13 07:31:40;;;;;;;1.15;0.60;;;;;;;;;;5051229;28;20214;-66
2022/06/13 07:34:08;;;;;;;0.95;0.65;;;;;;;;;;5039504;28;20208;-66
2022/06/13 07:36:35;;;;;;;1.35;0.88;;;;;;;;;;5047655;28;20852;-66
2022/06/13 07:39:02;;;;;;;1.10;0.55;;;;;;;;;;5050392;28;20269;-66
2022/06/13 07:41:29;;;;;;;0.73;0.70;;;;;;;;;;5048757;28;20208;-65
2022/06/13 07:43:57;;;;;;;2.40;0.88;;;;;;;;;;5049372;28;20216;-66
2022/06/13 07:46:27;;;;;;;0.73;0.73;;;;;;;;;;5041296;28;20527;-65
2022/06/13 07:48:54;;;;;;;3.35;0.95;;;;;;;;;;5031266;28;20259;-65
2022/06/13 07:51:22;;;;;;;2.05;0.80;;;;;;;;;;5031387;28;20270;-65
2022/06/13 07:53:49;;;;;;;1.98;0.90;;;;;;;;;;5043228;28;20251;-65
2022/06/13 07:56:17;;;;;;;2.00;0.80;;;;;;;;;;5050674;28;20251;-65
2022/06/13 07:58:45;;;;;;;2.45;0.73;;;;;;;;;;5050565;28;20231;-65
2022/06/13 08:01:13;;;;;;;2.03;1.00;;;;;;;;;;5050546;28;20212;-65
2022/06/13 08:03:42;;;;;;;1.33;0.75;;;;;;;;;;5050452;28;20207;-65
2022/06/13 08:06:10;;;;;;;1.45;1.02;;;;;;;;;;5050908;28;20361;-65
2022/06/13 08:08:39;;;;;;;0.77;0.77;;;;;;;;;;5050240;28;20286;-65
2022/06/13 08:11:07;;;;;;;2.05;0.85;;;;;;;;;;5050995;28;20218;-65
2022/06/13 08:13:35;;;;;;;0.80;0.80;;;;;;;;;;5050899;28;20215;-65
2022/06/13 08:16:02;;;;;;;2.33;1.13;;;;;;;;;;5030504;28;20223;-64
2022/06/13 08:18:29;;;;;;;1.40;0.90;;;;;;;;;;5040213;28;20729;-64
2022/06/13 08:20:58;;;;;;;1.35;0.80;;;;;;;;;;5049018;28;20207;-65
2022/06/13 08:23:25;;;;;;;1.92;0.82;;;;;;;;;;5050179;28;20204;-66
2022/06/13 08:25:53;;;;;;;1.58;0.80;;;;;;;;;;5047756;28;20269;-66
2022/06/13 08:28:20;;;;;;;0.80;0.80;;;;;;;;;;5049866;28;20277;-66
2022/06/13 08:30:49;;;;;;;1.52;0.65;;;;;;;;;;5049741;28;20207;-66
2022/06/13 08:33:17;;;;;;;1.85;1.17;;;;;;;;;;5049544;28;20216;-66
2022/06/13 08:35:44;;;;;;;1.23;0.80;;;;;;;;;;5049230;28;20443;-66
2022/06/13 08:38:13;;;;;;;0.93;0.90;;;;;;;;;;5048238;28;20207;-66
2022/06/13 08:40:43;;;;;;;1.67;0.70;;;;;;;;;;5048301;28;20258;-65
2022/06/13 08:43:17;;;;;;;1.20;0.98;;;;;;;;;;5048735;28;20211;-66
2022/06/13 08:45:48;;;;;;;2.75;0.90;;;;;;;;;;5049425;28;20269;-64
2022/06/13 08:48:20;;;;;;;1.27;0.77;;;;;;;;;;5050053;28;20265;-65
2022/06/13 08:50:50;;;;;;;1.00;0.90;;;;;;;;;;5049850;28;20219;-64
2022/06/13 08:53:21;;;;;;;1.30;0.70;;;;;;;;;;5044396;28;20232;-65
2022/06/13 08:55:50;;;;;;;1.33;0.73;;;;;;;;;;5047972;28;20242;-65
2022/06/13 08:58:21;;;;;;;3.70;0.90;;;;;;;;;;5048707;28;20709;-67
2022/06/13 09:00:51;;;;;;;3.75;0.85;;;;;;;;;;5049887;28;20282;-65
2022/06/13 09:03:21;;;;;;;1.15;1.02;;;;;;;;;;5049565;28;20215;-69
2022/06/13 09:05:52;;;;;;;1.05;0.95;;;;;;;;;;5049215;28;20746;-68
2022/06/13 09:08:23;;;;;;;1.00;1.00;;;;;;;;;;5048987;28;20218;-69
2022/06/13 09:10:55;;;;;;;2.15;1.20;;;;;;;;;;5049057;28;20298;-68
2022/06/13 09:13:26;;;;;;;2.22;0.90;;;;;;;;;;5049088;28;20238;-66
2022/06/13 09:15:55;;;;;;;3.13;1.20;;;;;;;;;;5048866;28;20215;-66
2022/06/13 09:18:24;;;;;;;1.05;0.70;;;;;;;;;;5048236;28;20571;-67
2022/06/13 09:20:54;;;;;;;1.98;0.93;;;;;;;;;;5048671;28;20208;-67
2022/06/13 09:23:29;;;;;;;3.05;1.30;;;;;;;;;;5047544;28;20377;-67
2022/06/13 09:25:59;;;;;;;1.08;1.02;;;;;;;;;;5048191;28;20587;-66
2022/06/13 09:28:28;;;;;;;3.88;1.00;;;;;;;;;;5047375;28;20318;-67
2022/06/13 09:30:57;;;;;;;0.82;0.75;;;;;;;;;;5048391;28;20273;-67
2022/06/13 09:33:28;;;;;;;3.58;0.88;;;;;;;;;;5047430;28;20216;-67
2022/06/13 09:35:57;;;;;;;2.53;0.95;;;;;;;;;;5048083;28;20212;-67
2022/06/13 09:38:26;;;;;;;1.13;0.75;;;;;;;;;;5045278;28;20216;-67
2022/06/13 09:41:00;;;;;;;1.52;0.90;;;;;;;;;;5047836;28;20221;-67
2022/06/13 09:43:33;;;;;;;1.05;0.80;;;;;;;;;;5047907;28;20595;-67
2022/06/13 09:46:06;;;;;;;2.22;0.90;;;;;;;;;;5047541;28;20215;-66
2022/06/13 09:48:39;;;;;;;1.77;0.80;;;;;;;;;;5047495;28;20588;-67
2022/06/13 09:51:11;;;;;;;2.17;0.70;;;;;;;;;;5047259;28;20208;-68
2022/06/13 09:53:45;;;;;;;0.98;0.90;;;;;;;;;;5047508;28;20309;-67
2022/06/13 09:56:15;;;;;;;0.80;0.80;;;;;;;;;;5039656;28;20768;-67
2022/06/13 09:58:49;;;;;;;0.73;0.73;;;;;;;;;;5036333;28;20647;-67
2022/06/13 10:01:21;;;;;;;1.40;0.82;;;;;;;;;;5047996;28;20298;-68
2022/06/13 10:03:51;;;;;;;0.70;0.70;;;;;;;;;;5047765;28;20565;-68
2022/06/13 10:06:21;;;;;;;0.80;0.80;;;;;;;;;;5047990;28;20207;-68
2022/06/13 10:08:56;;;;;;;2.08;0.88;;;;;;;;;;5047697;28;20203;-68
2022/06/13 10:11:29;;;;;;;0.70;0.70;;;;;;;;;;5048058;28;20203;-68
2022/06/13 10:14:06;;;;;;;2.35;1.15;;;;;;;;;;5048176;28;20252;-67
2022/06/13 10:16:35;;;;;;;0.85;0.85;;;;;;;;;;5047873;28;20223;-67
2022/06/13 10:19:07;;;;;;;0.80;0.80;;;;;;;;;;5047811;28;20285;-68
2022/06/13 10:21:36;;;;;;;1.50;1.08;;;;;;;;;;5048052;28;20689;-68
2022/06/13 10:24:12;;;;;;;0.90;0.85;;;;;;;;;;5047757;28;20302;-67
2022/06/13 10:26:42;;;;;;;1.02;1.02;;;;;;;;;;5048016;28;20211;-68
2022/06/13 10:29:17;;;;;;;1.05;0.80;;;;;;;;;;5048009;28;20210;-67
2022/06/13 10:31:51;;;;;;;1.35;1.05;;;;;;;;;;5047929;28;20299;-68
2022/06/13 10:34:24;;;;;;;0.95;0.95;;;;;;;;;;5045802;28;20203;-68
2022/06/13 10:36:55;;;;;;;3.22;1.10;;;;;;;;;;5044949;28;20654;-69
2022/06/13 10:39:26;;;;;;;1.20;0.88;;;;;;;;;;5046749;28;20713;-68
2022/06/13 10:41:54;;;;;;;1.13;0.95;;;;;;;;;;5028400;28;20209;-68
2022/06/13 10:44:21;;;;;;;1.45;1.08;;;;;;;;;;5047177;28;20589;-68
2022/06/13 10:46:51;;;;;;;0.82;0.80;;;;;;;;;;5047369;28;20264;-69
2022/06/13 10:49:21;;;;;;;1.10;1.10;;;;;;;;;;5046730;28;20330;-68
2022/06/13 10:51:49;;;;;;;1.08;1.08;;;;;;;;;;5045112;28;20229;-67
2022/06/13 10:54:19;;;;;;;1.27;0.88;;;;;;;;;;5046997;28;20798;-67
2022/06/13 10:56:49;;;;;;;1.55;0.93;;;;;;;;;;5045203;28;20242;-65
2022/06/13 10:59:25;;;;;;;2.38;0.95;;;;;;;;;;5047139;28;20231;-64
2022/06/13 11:01:54;;;;;;;1.77;0.90;;;;;;;;;;5046492;28;20208;-63
2022/06/13 11:04:21;;;;;;;2.40;1.27;;;;;;;;;;5045444;28;20298;-64
2022/06/13 11:06:49;;;;;;;2.67;0.95;;;;;;;;;;5047201;28;20203;-63
2022/06/13 11:09:22;;;;;;;4.13;1.27;;;;;;;;;;5047483;28;20200;-64
2022/06/13 11:11:54;;;;;;;0.90;0.90;;;;;;;;;;5047443;28;20681;-64
2022/06/13 11:14:27;;;;;;;1.77;1.20;;;;;;;;;;5047556;28;20218;-62
2022/06/13 11:22:40;;;;;;;0.65;0.65;;;;;;;;;;5045878;28;20210;-63
2022/06/13 11:25:19;;;;;;;0.95;0.93;;;;;;;;;;5047623;28;20331;-63
2022/06/13 11:27:49;;;;;;;1.13;1.00;;;;;;;;;;5047299;28;20586;-63
2022/06/13 11:30:31;;;;;;;0.73;0.73;;;;;;;;;;5047612;28;20211;-63
2022/06/13 11:32:59;;;;;;;1.05;0.95;;;;;;;;;;5047114;28;20215;-63
2022/06/13 11:35:31;;;;;;;2.28;1.35;;;;;;;;;;5033400;28;20212;-66
2022/06/13 11:38:10;;;;;;;4.47;1.50;;;;;;;;;;5037509;28;20262;-63
2022/06/13 11:40:37;;;;;;;2.33;1.05;;;;;;;;;;5045794;28;20300;-64
2022/06/13 11:43:06;;;;;;;1.38;0.98;;;;;;;;;;5046837;28;20200;-63
2022/06/13 11:45:33;;;;;;;0.98;0.88;;;;;;;;;;5046447;28;20238;-64
2022/06/13 11:48:00;;;;;;;2.10;1.05;;;;;;;;;;5046547;28;20268;-64
2022/06/13 11:50:29;;;;;;;1.17;0.90;;;;;;;;;;5034300;28;20250;-63
2022/06/13 11:55:51;;;;;;;2.17;1.17;;;;;;;;;;5026660;28;20309;-64
2022/06/13 11:58:20;;;;;;;1.35;1.30;;;;;;;;;;5032981;28;20751;-64
2022/06/13 12:00:52;;;;;;;2.00;1.30;;;;;;;;;;5042265;28;20224;-64
2022/06/13 12:03:21;;;;;;;1.17;1.17;;;;;;;;;;5046330;28;20212;-64
2022/06/13 12:05:57;;;;;;;1.10;1.10;;;;;;;;;;5045721;28;20207;-64
2022/06/13 12:08:28;;;;;;;3.47;1.20;;;;;;;;;;5044701;28;20265;-64
2022/06/13 12:11:00;;;;;;;1.88;1.20;;;;;;;;;;5044809;28;20208;-64
2022/06/13 12:13:30;;;;;;;1.77;1.20;;;;;;;;;;5046553;28;20265;-63
2022/06/13 12:16:01;;;;;;;2.03;1.30;;;;;;;;;;5048118;28;20573;-64
2022/06/13 12:18:31;;;;;;;2.67;1.48;;;;;;;;;;5050449;28;20610;-64
2022/06/13 12:21:00;;;;;;;2.20;1.23;;;;;;;;;;5049377;28;20228;-64
2022/06/13 12:23:31;;;;;;;2.22;1.40;;;;;;;;;;5050034;28;20298;-65
2022/06/13 12:26:01;;;;;;;2.78;1.27;;;;;;;;;;5050175;28;20212;-65
2022/06/13 12:28:32;;;;;;;1.98;1.25;;;;;;;;;;5049931;28;20219;-65
2022/06/13 12:31:02;;;;;;;1.85;1.75;;;;;;;;;;5048135;28;20238;-65
2022/06/13 12:33:37;;;;;;;1.30;1.20;;;;;;;;;;5046278;28;20265;-64
2022/06/13 12:36:09;;;;;;;1.45;1.35;;;;;;;;;;5047413;28;20676;-65
2022/06/13 12:38:42;;;;;;;3.72;1.27;;;;;;;;;;5049713;28;20328;-65
2022/06/13 12:41:16;;;;;;;0.95;0.85;;;;;;;;;;5049804;28;20254;-65
2022/06/13 12:44:02;;;;;;;1.88;1.77;;;;;;;;;;5047642;28;20208;-65
2022/06/13 12:46:38;;;;;;;1.52;1.20;;;;;;;;;;5049221;28;20417;-65
2022/06/13 12:49:16;;;;;;;1.63;1.08;;;;;;;;;;5035160;28;20210;-64
2022/06/13 12:51:48;;;;;;;4.65;1.70;;;;;;;;;;5049984;28;20631;-65
2022/06/13 12:54:30;;;;;;;1.65;1.30;;;;;;;;;;5049651;28;20231;-64
2022/06/13 12:57:02;;;;;;;1.02;1.02;;;;;;;;;;5048988;28;20817;-64
2022/06/13 12:59:36;;;;;;;3.95;1.40;;;;;;;;;;5048428;28;20245;-64
2022/06/13 13:02:14;;;;;;;1.48;1.35;;;;;;;;;;5048791;28;20650;-64
2022/06/13 13:04:50;;;;;;;3.72;1.50;;;;;;;;;;5049387;28;20688;-64
2022/06/13 13:07:20;;;;;;;1.65;1.40;;;;;;;;;;5047552;28;20795;-66
2022/06/13 13:10:03;;;;;;;2.25;0.95;;;;;;;;;;5048342;28;20290;-67
2022/06/13 13:12:55;;;;;;;1.55;1.35;;;;;;;;;;5030292;28;20237;-64
2022/06/13 13:15:28;;;;;;;3.97;1.58;;;;;;;;;;5048024;28;20204;-69
2022/06/13 13:17:57;;;;;;;1.58;1.50;;;;;;;;;;5040064;28;20207;-67
2022/06/13 13:20:29;;;;;;;1.60;1.30;;;;;;;;;;5044194;28;20289;-66
2022/06/13 13:23:00;;;;;;;3.25;1.60;;;;;;;;;;5041948;28;20345;-63
2022/06/13 13:25:31;;;;;;;2.90;1.45;;;;;;;;;;5041867;28;20212;-66
2022/06/13 13:28:04;;;;;;;3.17;1.90;;;;;;;;;;5044037;28;20762;-65
2022/06/13 13:30:39;;;;;;;1.85;1.05;;;;;;;;;;5034511;28;20231;-66
2022/06/13 13:33:13;;;;;;;3.97;1.13;;;;;;;;;;5044910;28;20204;-68
2022/06/13 13:35:43;;;;;;;2.00;1.20;;;;;;;;;;5045146;28;20632;-74
2022/06/13 13:38:14;;;;;;;6.80;1.55;;;;;;;;;;5042299;28;20785;-64
2022/06/13 13:40:45;;;;;;;1.50;1.40;;;;;;;;;;5042690;28;20780;-73
2022/06/13 13:43:17;;;;;;;3.25;1.23;;;;;;;;;;5044059;28;20207;-67
2022/06/13 13:45:48;;;;;;;2.17;1.15;;;;;;;;;;5043249;28;20286;-73
2022/06/13 13:48:22;;;;;;;1.40;1.33;;;;;;;;;;5043247;28;20697;-66
2022/06/13 13:50:52;;;;;;;4.60;1.63;;;;;;;;;;5044096;28;20474;-66
2022/06/13 13:53:21;;;;;;;1.35;1.10;;;;;;;;;;5045248;28;20313;-73
2022/06/13 13:55:51;;;;;;;1.33;1.10;;;;;;;;;;5042288;28;20239;-68
2022/06/13 13:58:23;;;;;;;3.95;1.48;;;;;;;;;;5042054;28;20212;-67
2022/06/13 14:00:55;;;;;;;1.13;1.13;;;;;;;;;;5044035;28;20234;-67
2022/06/13 14:03:27;;;;;;;4.38;1.40;;;;;;;;;;5040402;28;20208;-68
2022/06/13 14:05:55;;;;;;;2.42;1.30;;;;;;;;;;5043858;28;20685;-68
2022/06/13 14:08:25;;;;;;;2.85;1.70;;;;;;;;;;5043549;28;20207;-67
2022/06/13 14:10:54;;;;;;;3.83;1.83;;;;;;;;;;5043246;28;20199;-67
2022/06/13 14:13:23;;;;;;;1.70;1.60;;;;;;;;;;5042581;28;20208;-68
2022/06/13 14:16:16;;;;;;;2.28;1.80;;;;;;;;;;5034127;28;20208;-69
2022/06/13 14:19:07;;;;;;;3.00;1.98;;;;;;;;;;5033122;28;20208;-67
2022/06/13 14:21:40;;;;;;;2.15;1.48;;;;;;;;;;5038639;28;20231;-67
2022/06/13 14:24:11;;;;;;;1.73;1.60;;;;;;;;;;5044112;28;20212;-68
2022/06/13 14:26:58;;;;;;;3.00;1.95;;;;;;;;;;5044173;28;20261;-65
2022/06/13 14:29:29;;;;;;;4.90;1.77;;;;;;;;;;5042912;28;20268;-66
2022/06/13 14:31:57;;;;;;;2.42;1.80;;;;;;;;;;5041123;28;20204;-69
2022/06/13 14:37:25;;;;;;;4.05;1.65;;;;;;;;;;5042768;28;20222;-64
2022/06/13 14:39:55;;;;;;;2.05;1.50;;;;;;;;;;5043522;28;20281;-64
2022/06/13 14:42:36;;;;;;;1.83;1.45;;;;;;;;;;5043376;28;20199;-64
2022/06/13 14:45:05;;;;;;;3.15;1.77;;;;;;;;;;5043286;28;20284;-65
2022/06/13 14:47:44;;;;;;;2.35;1.90;;;;;;;;;;5041975;28;20274;-65
2022/06/13 14:50:11;;;;;;;1.88;1.77;;;;;;;;;;5039874;28;20277;-64
2022/06/13 14:52:39;;;;;;;3.63;2.08;;;;;;;;;;5032965;28;20238;-64
2022/06/13 14:55:24;;;;;;;1.58;1.58;;;;;;;;;;5040981;28;20232;-65
2022/06/13 14:57:52;;;;;;;2.03;1.63;;;;;;;;;;5039851;28;20230;-67
2022/06/13 15:00:24;;;;;;;1.83;1.73;;;;;;;;;;5041901;28;20277;-66
2022/06/13 15:03:15;;;;;;;1.42;1.33;;;;;;;;;;5043521;28;20203;-65
2022/06/13 15:05:48;;;;;;;1.75;1.60;;;;;;;;;;5015952;28;20203;-66
2022/06/13 15:08:21;;;;;;;1.30;1.20;;;;;;;;;;5043234;28;20207;-66
2022/06/13 15:10:49;;;;;;;2.80;1.80;;;;;;;;;;5041754;28;20282;-66
2022/06/13 15:13:17;;;;;;;2.55;1.85;;;;;;;;;;5042861;28;20207;-65
2022/06/13 15:15:44;;;;;;;1.65;1.63;;;;;;;;;;5041962;28;20211;-64
2022/06/13 15:18:19;;;;;;;2.53;1.80;;;;;;;;;;5042282;28;20214;-64
2022/06/13 15:20:47;;;;;;;1.70;1.60;;;;;;;;;;5042402;28;20231;-64
2022/06/13 15:23:18;;;;;;;1.63;1.63;;;;;;;;;;5039820;28;20713;-64
2022/06/13 15:25:47;;;;;;;2.38;2.17;;;;;;;;;;5042194;28;20215;-64
2022/06/13 15:28:16;;;;;;;3.42;2.08;;;;;;;;;;5041401;28;20203;-62